sensor_id;sensor_type;location;lat;lon;timestamp;temperature;humidity
20866;DHT22;10593;48.398;10.698;2024-03-02T00:02:24;9.70;64.80
20866;DHT22;10593;48.398;10.698;2024-03-02T00:04:50;9.70;64.80
20866;DHT22;10593;48.398;10.698;2024-03-02T00:07:17;9.70;64.80
20866;DHT22;10593;48.398;10.698;2024-03-02T00:09:42;9.60;64.70
20866;DHT22;10593;48.398;10.698;2024-03-02T00:12:10;9.70;64.80
20866;DHT22;10593;48.398;10.698;2024-03-02T00:14:40;9.60;64.60
20866;DHT22;10593;48.398;10.698;2024-03-02T00:17:14;9.70;64.70
20866;DHT22;10593;48.398;10.698;2024-03-02T00:19:49;9.60;64.60
20866;DHT22;10593;48.398;10.698;2024-03-02T00:22:15;9.60;64.50
20866;DHT22;10593;48.398;10.698;2024-03-02T00:24:41;9.60;65.00
20866;DHT22;10593;48.398;10.698;2024-03-02T00:27:07;9.60;64.30
20866;DHT22;10593;48.398;10.698;2024-03-02T00:29:35;9.60;64.20
20866;DHT22;10593;48.398;10.698;2024-03-02T00:32:01;9.60;64.20
20866;DHT22;10593;48.398;10.698;2024-03-02T00:34:27;9.60;64.20
20866;DHT22;10593;48.398;10.698;2024-03-02T00:36:53;9.60;64.10
20866;DHT22;10593;48.398;10.698;2024-03-02T00:39:18;9.60;64.10
20866;DHT22;10593;48.398;10.698;2024-03-02T00:41:44;9.60;64.20
20866;DHT22;10593;48.398;10.698;2024-03-02T00:44:15;9.50;64.70
20866;DHT22;10593;48.398;10.698;2024-03-02T00:46:42;9.50;64.10
20866;DHT22;10593;48.398;10.698;2024-03-02T00:49:29;9.50;64.10
20866;DHT22;10593;48.398;10.698;2024-03-02T00:51:55;9.50;64.10
20866;DHT22;10593;48.398;10.698;2024-03-02T00:54:22;9.50;64.10
20866;DHT22;10593;48.398;10.698;2024-03-02T00:56:54;9.50;64.20
20866;DHT22;10593;48.398;10.698;2024-03-02T00:59:23;9.50;64.20
20866;DHT22;10593;48.398;10.698;2024-03-02T01:01:49;9.40;64.10
20866;DHT22;10593;48.398;10.698;2024-03-02T01:04:15;9.40;64.30
20866;DHT22;10593;48.398;10.698;2024-03-02T01:06:42;9.50;64.40
20866;DHT22;10593;48.398;10.698;2024-03-02T01:09:08;9.50;64.40
20866;DHT22;10593;48.398;10.698;2024-03-02T01:11:34;9.40;64.40
20866;DHT22;10593;48.398;10.698;2024-03-02T01:14:00;9.40;64.40
20866;DHT22;10593;48.398;10.698;2024-03-02T01:16:25;9.50;64.40
20866;DHT22;10593;48.398;10.698;2024-03-02T01:18:51;9.40;64.40
20866;DHT22;10593;48.398;10.698;2024-03-02T01:21:17;9.40;64.40
20866;DHT22;10593;48.398;10.698;2024-03-02T01:23:43;9.40;64.40
20866;DHT22;10593;48.398;10.698;2024-03-02T01:26:09;9.40;64.40
20866;DHT22;10593;48.398;10.698;2024-03-02T01:28:34;9.40;64.50
20866;DHT22;10593;48.398;10.698;2024-03-02T01:31:00;9.40;64.50
20866;DHT22;10593;48.398;10.698;2024-03-02T01:33:27;9.40;64.50
20866;DHT22;10593;48.398;10.698;2024-03-02T01:35:53;9.40;65.10
20866;DHT22;10593;48.398;10.698;2024-03-02T01:38:18;9.40;64.50
20866;DHT22;10593;48.398;10.698;2024-03-02T01:40:44;9.40;64.50
20866;DHT22;10593;48.398;10.698;2024-03-02T01:43:10;9.40;64.50
20866;DHT22;10593;48.398;10.698;2024-03-02T01:45:36;9.40;64.50
20866;DHT22;10593;48.398;10.698;2024-03-02T01:48:06;9.40;64.40
20866;DHT22;10593;48.398;10.698;2024-03-02T01:50:33;9.40;64.40
20866;DHT22;10593;48.398;10.698;2024-03-02T01:53:00;9.40;64.30
20866;DHT22;10593;48.398;10.698;2024-03-02T01:55:26;9.40;64.10
20866;DHT22;10593;48.398;10.698;2024-03-02T01:57:54;9.30;63.90
20866;DHT22;10593;48.398;10.698;2024-03-02T02:00:21;9.30;63.80
20866;DHT22;10593;48.398;10.698;2024-03-02T02:02:48;9.30;63.80
20866;DHT22;10593;48.398;10.698;2024-03-02T02:05:14;9.30;63.80
20866;DHT22;10593;48.398;10.698;2024-03-02T02:07:41;9.30;63.70
20866;DHT22;10593;48.398;10.698;2024-03-02T02:10:10;9.30;63.70
20866;DHT22;10593;48.398;10.698;2024-03-02T02:12:36;9.30;63.70
20866;DHT22;10593;48.398;10.698;2024-03-02T02:15:02;9.30;63.70
20866;DHT22;10593;48.398;10.698;2024-03-02T02:17:29;9.30;63.70
20866;DHT22;10593;48.398;10.698;2024-03-02T02:19:54;9.20;63.60
20866;DHT22;10593;48.398;10.698;2024-03-02T02:22:20;9.20;63.70
20866;DHT22;10593;48.398;10.698;2024-03-02T02:24:46;9.20;63.70
20866;DHT22;10593;48.398;10.698;2024-03-02T02:27:11;9.20;63.70
20866;DHT22;10593;48.398;10.698;2024-03-02T02:29:40;9.20;63.70
20866;DHT22;10593;48.398;10.698;2024-03-02T02:32:07;9.20;63.80
20866;DHT22;10593;48.398;10.698;2024-03-02T02:34:33;9.20;63.90
20866;DHT22;10593;48.398;10.698;2024-03-02T02:37:00;9.20;63.90
20866;DHT22;10593;48.398;10.698;2024-03-02T02:39:26;9.20;64.00
20866;DHT22;10593;48.398;10.698;2024-03-02T02:41:52;9.20;64.10
20866;DHT22;10593;48.398;10.698;2024-03-02T02:44:18;9.20;64.10
20866;DHT22;10593;48.398;10.698;2024-03-02T02:46:43;9.20;64.20
20866;DHT22;10593;48.398;10.698;2024-03-02T02:49:09;9.20;64.80
20866;DHT22;10593;48.398;10.698;2024-03-02T02:51:34;9.20;64.20
20866;DHT22;10593;48.398;10.698;2024-03-02T02:54:00;9.20;64.20
20866;DHT22;10593;48.398;10.698;2024-03-02T02:56:26;9.20;64.20
20866;DHT22;10593;48.398;10.698;2024-03-02T02:58:51;9.20;64.20
20866;DHT22;10593;48.398;10.698;2024-03-02T03:01:17;9.20;64.20
20866;DHT22;10593;48.398;10.698;2024-03-02T03:03:43;9.10;64.10
20866;DHT22;10593;48.398;10.698;2024-03-02T03:06:10;9.20;64.20
20866;DHT22;10593;48.398;10.698;2024-03-02T03:08:36;9.10;64.10
20866;DHT22;10593;48.398;10.698;2024-03-02T03:11:02;9.20;64.10
20866;DHT22;10593;48.398;10.698;2024-03-02T03:13:28;9.20;64.10
20866;DHT22;10593;48.398;10.698;2024-03-02T03:15:53;9.10;64.10
20866;DHT22;10593;48.398;10.698;2024-03-02T03:18:19;9.10;64.00
20866;DHT22;10593;48.398;10.698;2024-03-02T03:20:45;9.10;64.00
20866;DHT22;10593;48.398;10.698;2024-03-02T03:23:10;9.10;64.00
20866;DHT22;10593;48.398;10.698;2024-03-02T03:25:41;9.10;64.00
20866;DHT22;10593;48.398;10.698;2024-03-02T03:28:07;9.10;64.00
20866;DHT22;10593;48.398;10.698;2024-03-02T03:30:38;9.10;64.00
20866;DHT22;10593;48.398;10.698;2024-03-02T03:33:04;9.10;64.00
20866;DHT22;10593;48.398;10.698;2024-03-02T03:35:34;9.10;64.00
20866;DHT22;10593;48.398;10.698;2024-03-02T03:38:00;9.10;64.10
20866;DHT22;10593;48.398;10.698;2024-03-02T03:40:26;9.10;64.10
20866;DHT22;10593;48.398;10.698;2024-03-02T03:42:52;9.10;64.10
20866;DHT22;10593;48.398;10.698;2024-03-02T03:45:17;9.10;64.10
20866;DHT22;10593;48.398;10.698;2024-03-02T03:47:43;9.00;64.00
20866;DHT22;10593;48.398;10.698;2024-03-02T03:50:09;9.00;64.00
20866;DHT22;10593;48.398;10.698;2024-03-02T03:52:35;9.00;64.00
20866;DHT22;10593;48.398;10.698;2024-03-02T03:55:01;9.00;64.00
20866;DHT22;10593;48.398;10.698;2024-03-02T03:57:27;9.00;63.90
20866;DHT22;10593;48.398;10.698;2024-03-02T03:59:53;9.00;63.70
20866;DHT22;10593;48.398;10.698;2024-03-02T04:02:19;9.00;63.60
20866;DHT22;10593;48.398;10.698;2024-03-02T04:04:45;9.00;63.60
20866;DHT22;10593;48.398;10.698;2024-03-02T04:07:11;9.00;63.60
20866;DHT22;10593;48.398;10.698;2024-03-02T04:09:36;9.00;63.60
20866;DHT22;10593;48.398;10.698;2024-03-02T04:12:02;9.00;63.50
20866;DHT22;10593;48.398;10.698;2024-03-02T04:14:28;8.90;63.30
20866;DHT22;10593;48.398;10.698;2024-03-02T04:16:54;9.00;63.50
20866;DHT22;10593;48.398;10.698;2024-03-02T04:19:19;8.90;63.30
20866;DHT22;10593;48.398;10.698;2024-03-02T04:21:45;8.90;63.40
20866;DHT22;10593;48.398;10.698;2024-03-02T04:24:11;8.90;63.50
20866;DHT22;10593;48.398;10.698;2024-03-02T04:26:36;8.90;63.50
20866;DHT22;10593;48.398;10.698;2024-03-02T04:29:02;8.90;63.60
20866;DHT22;10593;48.398;10.698;2024-03-02T04:31:27;8.90;63.70
20866;DHT22;10593;48.398;10.698;2024-03-02T04:33:53;8.90;63.70
20866;DHT22;10593;48.398;10.698;2024-03-02T04:36:19;8.90;63.70
20866;DHT22;10593;48.398;10.698;2024-03-02T04:38:45;8.90;63.80
20866;DHT22;10593;48.398;10.698;2024-03-02T04:41:10;8.90;63.80
20866;DHT22;10593;48.398;10.698;2024-03-02T04:43:36;8.90;63.80
20866;DHT22;10593;48.398;10.698;2024-03-02T04:46:02;8.90;63.90
20866;DHT22;10593;48.398;10.698;2024-03-02T04:48:28;8.80;63.70
20866;DHT22;10593;48.398;10.698;2024-03-02T04:50:53;8.80;63.70
20866;DHT22;10593;48.398;10.698;2024-03-02T04:53:19;8.80;63.70
20866;DHT22;10593;48.398;10.698;2024-03-02T04:55:45;8.80;63.70
20866;DHT22;10593;48.398;10.698;2024-03-02T04:58:19;8.90;63.80
20866;DHT22;10593;48.398;10.698;2024-03-02T05:00:45;8.80;63.60
20866;DHT22;10593;48.398;10.698;2024-03-02T05:03:12;8.80;63.50
20866;DHT22;10593;48.398;10.698;2024-03-02T05:05:38;8.80;63.50
20866;DHT22;10593;48.398;10.698;2024-03-02T05:08:04;8.80;63.50
20866;DHT22;10593;48.398;10.698;2024-03-02T05:10:30;8.80;63.50
20866;DHT22;10593;48.398;10.698;2024-03-02T05:12:56;8.80;63.40
20866;DHT22;10593;48.398;10.698;2024-03-02T05:15:25;8.80;63.50
20866;DHT22;10593;48.398;10.698;2024-03-02T05:17:51;8.70;63.30
20866;DHT22;10593;48.398;10.698;2024-03-02T05:20:17;8.80;63.30
20866;DHT22;10593;48.398;10.698;2024-03-02T05:22:43;8.70;63.20
20866;DHT22;10593;48.398;10.698;2024-03-02T05:25:08;8.80;63.30
20866;DHT22;10593;48.398;10.698;2024-03-02T05:27:37;8.70;63.20
20866;DHT22;10593;48.398;10.698;2024-03-02T05:30:04;8.70;63.20
20866;DHT22;10593;48.398;10.698;2024-03-02T05:32:32;8.70;63.20
20866;DHT22;10593;48.398;10.698;2024-03-02T05:34:57;8.70;63.20
20866;DHT22;10593;48.398;10.698;2024-03-02T05:37:23;8.70;63.20
20866;DHT22;10593;48.398;10.698;2024-03-02T05:39:49;8.70;63.20
20866;DHT22;10593;48.398;10.698;2024-03-02T05:42:14;8.60;63.10
20866;DHT22;10593;48.398;10.698;2024-03-02T05:44:42;8.60;63.10
20866;DHT22;10593;48.398;10.698;2024-03-02T05:47:07;8.60;63.10
20866;DHT22;10593;48.398;10.698;2024-03-02T05:49:34;8.60;63.00
20866;DHT22;10593;48.398;10.698;2024-03-02T05:52:00;8.60;62.90
20866;DHT22;10593;48.398;10.698;2024-03-02T05:54:25;8.60;62.90
20866;DHT22;10593;48.398;10.698;2024-03-02T05:56:51;8.60;62.90
20866;DHT22;10593;48.398;10.698;2024-03-02T05:59:17;8.60;62.90
20866;DHT22;10593;48.398;10.698;2024-03-02T06:01:43;8.60;62.90
20866;DHT22;10593;48.398;10.698;2024-03-02T06:04:13;8.50;62.90
20866;DHT22;10593;48.398;10.698;2024-03-02T06:06:40;8.50;62.90
20866;DHT22;10593;48.398;10.698;2024-03-02T06:09:06;8.50;63.00
20866;DHT22;10593;48.398;10.698;2024-03-02T06:11:36;8.50;63.00
20866;DHT22;10593;48.398;10.698;2024-03-02T06:14:06;8.50;63.00
20866;DHT22;10593;48.398;10.698;2024-03-02T06:16:34;8.50;63.00
20866;DHT22;10593;48.398;10.698;2024-03-02T06:19:00;8.50;62.90
20866;DHT22;10593;48.398;10.698;2024-03-02T06:21:27;8.50;62.90
20866;DHT22;10593;48.398;10.698;2024-03-02T06:23:53;8.50;62.80
20866;DHT22;10593;48.398;10.698;2024-03-02T06:26:19;8.50;62.80
20866;DHT22;10593;48.398;10.698;2024-03-02T06:28:46;8.50;62.70
20866;DHT22;10593;48.398;10.698;2024-03-02T06:31:12;8.50;62.50
20866;DHT22;10593;48.398;10.698;2024-03-02T06:33:38;8.50;62.50
20866;DHT22;10593;48.398;10.698;2024-03-02T06:36:04;8.50;62.70
20866;DHT22;10593;48.398;10.698;2024-03-02T06:38:30;8.50;62.90
20866;DHT22;10593;48.398;10.698;2024-03-02T06:40:58;8.50;62.90
20866;DHT22;10593;48.398;10.698;2024-03-02T06:43:24;8.60;63.20
20866;DHT22;10593;48.398;10.698;2024-03-02T06:45:50;8.70;63.60
20866;DHT22;10593;48.398;10.698;2024-03-02T06:48:17;8.80;64.00
20866;DHT22;10593;48.398;10.698;2024-03-02T06:50:50;8.80;64.20
20866;DHT22;10593;48.398;10.698;2024-03-02T06:53:16;9.00;64.50
20866;DHT22;10593;48.398;10.698;2024-03-02T06:55:43;9.10;64.60
20866;DHT22;10593;48.398;10.698;2024-03-02T06:58:13;9.30;64.90
20866;DHT22;10593;48.398;10.698;2024-03-02T07:00:41;9.50;65.00
20866;DHT22;10593;48.398;10.698;2024-03-02T07:03:07;9.70;65.10
20866;DHT22;10593;48.398;10.698;2024-03-02T07:05:33;9.90;64.80
20866;DHT22;10593;48.398;10.698;2024-03-02T07:07:58;10.20;63.40
20866;DHT22;10593;48.398;10.698;2024-03-02T07:10:24;10.40;62.90
20866;DHT22;10593;48.398;10.698;2024-03-02T07:12:50;10.60;61.90
20866;DHT22;10593;48.398;10.698;2024-03-02T07:15:15;10.70;61.30
20866;DHT22;10593;48.398;10.698;2024-03-02T07:17:54;10.90;61.10
20866;DHT22;10593;48.398;10.698;2024-03-02T07:20:20;11.10;61.00
20866;DHT22;10593;48.398;10.698;2024-03-02T07:22:46;11.20;60.80
20866;DHT22;10593;48.398;10.698;2024-03-02T07:25:11;11.40;60.80
20866;DHT22;10593;48.398;10.698;2024-03-02T07:27:38;11.60;60.90
20866;DHT22;10593;48.398;10.698;2024-03-02T07:30:05;11.80;60.50
20866;DHT22;10593;48.398;10.698;2024-03-02T07:32:31;12.00;60.30
20866;DHT22;10593;48.398;10.698;2024-03-02T07:34:57;12.30;59.80
20866;DHT22;10593;48.398;10.698;2024-03-02T07:37:23;12.50;59.50
20866;DHT22;10593;48.398;10.698;2024-03-02T07:39:50;12.70;59.00
20866;DHT22;10593;48.398;10.698;2024-03-02T07:42:16;12.90;58.50
20866;DHT22;10593;48.398;10.698;2024-03-02T07:44:43;13.10;58.00
20866;DHT22;10593;48.398;10.698;2024-03-02T07:47:11;13.20;57.20
20866;DHT22;10593;48.398;10.698;2024-03-02T07:49:37;13.30;57.00
20866;DHT22;10593;48.398;10.698;2024-03-02T07:52:03;13.30;56.70
20866;DHT22;10593;48.398;10.698;2024-03-02T07:54:29;13.30;56.40
20866;DHT22;10593;48.398;10.698;2024-03-02T07:56:55;13.30;56.50
20866;DHT22;10593;48.398;10.698;2024-03-02T07:59:20;13.20;56.30
20866;DHT22;10593;48.398;10.698;2024-03-02T08:01:48;13.20;56.40
20866;DHT22;10593;48.398;10.698;2024-03-02T08:04:14;13.10;56.30
20866;DHT22;10593;48.398;10.698;2024-03-02T08:06:40;13.10;56.50
20866;DHT22;10593;48.398;10.698;2024-03-02T08:09:05;13.00;56.40
20866;DHT22;10593;48.398;10.698;2024-03-02T08:11:35;12.90;56.40
20866;DHT22;10593;48.398;10.698;2024-03-02T08:14:01;12.80;56.50
20866;DHT22;10593;48.398;10.698;2024-03-02T08:16:26;12.70;56.50
20866;DHT22;10593;48.398;10.698;2024-03-02T08:18:52;12.60;56.80
20866;DHT22;10593;48.398;10.698;2024-03-02T08:21:18;12.50;56.70
20866;DHT22;10593;48.398;10.698;2024-03-02T08:23:44;12.40;56.80
20866;DHT22;10593;48.398;10.698;2024-03-02T08:26:11;12.30;57.20
20866;DHT22;10593;48.398;10.698;2024-03-02T08:28:37;12.20;57.40
20866;DHT22;10593;48.398;10.698;2024-03-02T08:31:06;12.10;57.60
20866;DHT22;10593;48.398;10.698;2024-03-02T08:33:32;12.00;57.70
20866;DHT22;10593;48.398;10.698;2024-03-02T08:35:58;12.00;58.00
20866;DHT22;10593;48.398;10.698;2024-03-02T08:38:24;11.90;58.20
20866;DHT22;10593;48.398;10.698;2024-03-02T08:40:50;11.80;58.20
20866;DHT22;10593;48.398;10.698;2024-03-02T08:43:16;11.70;58.50
20866;DHT22;10593;48.398;10.698;2024-03-02T08:45:43;11.70;58.50
20866;DHT22;10593;48.398;10.698;2024-03-02T08:48:09;11.60;58.70
20866;DHT22;10593;48.398;10.698;2024-03-02T08:50:35;11.60;59.00
20866;DHT22;10593;48.398;10.698;2024-03-02T08:53:02;11.50;59.00
20866;DHT22;10593;48.398;10.698;2024-03-02T08:55:28;11.50;59.30
20866;DHT22;10593;48.398;10.698;2024-03-02T08:57:55;11.50;59.40
20866;DHT22;10593;48.398;10.698;2024-03-02T09:00:21;11.40;59.50
20866;DHT22;10593;48.398;10.698;2024-03-02T09:02:47;11.40;59.60
20866;DHT22;10593;48.398;10.698;2024-03-02T09:05:13;11.40;59.70
20866;DHT22;10593;48.398;10.698;2024-03-02T09:07:38;11.40;59.90
20866;DHT22;10593;48.398;10.698;2024-03-02T09:10:05;11.40;60.10
20866;DHT22;10593;48.398;10.698;2024-03-02T09:12:32;11.30;60.20
20866;DHT22;10593;48.398;10.698;2024-03-02T09:14:58;11.40;60.40
20866;DHT22;10593;48.398;10.698;2024-03-02T09:17:25;11.40;60.50
20866;DHT22;10593;48.398;10.698;2024-03-02T09:19:50;11.30;60.60
20866;DHT22;10593;48.398;10.698;2024-03-02T09:22:19;11.30;60.60
20866;DHT22;10593;48.398;10.698;2024-03-02T09:24:45;11.30;60.80
20866;DHT22;10593;48.398;10.698;2024-03-02T09:27:11;11.30;60.90
20866;DHT22;10593;48.398;10.698;2024-03-02T09:29:36;11.40;61.10
20866;DHT22;10593;48.398;10.698;2024-03-02T09:32:03;11.40;61.20
20866;DHT22;10593;48.398;10.698;2024-03-02T09:34:30;11.40;61.30
20866;DHT22;10593;48.398;10.698;2024-03-02T09:36:56;11.40;61.40
20866;DHT22;10593;48.398;10.698;2024-03-02T09:39:21;11.40;61.30
20866;DHT22;10593;48.398;10.698;2024-03-02T09:41:48;11.50;61.20
20866;DHT22;10593;48.398;10.698;2024-03-02T09:44:14;11.40;60.90
20866;DHT22;10593;48.398;10.698;2024-03-02T09:46:40;11.50;60.70
20866;DHT22;10593;48.398;10.698;2024-03-02T09:49:06;11.50;60.50
20866;DHT22;10593;48.398;10.698;2024-03-02T09:51:32;11.50;60.30
20866;DHT22;10593;48.398;10.698;2024-03-02T09:53:57;11.50;60.40
20866;DHT22;10593;48.398;10.698;2024-03-02T09:56:26;11.50;60.50
20866;DHT22;10593;48.398;10.698;2024-03-02T09:58:52;11.50;60.40
20866;DHT22;10593;48.398;10.698;2024-03-02T10:01:17;11.60;60.50
20866;DHT22;10593;48.398;10.698;2024-03-02T10:03:45;11.60;60.60
20866;DHT22;10593;48.398;10.698;2024-03-02T10:06:26;11.60;60.40
20866;DHT22;10593;48.398;10.698;2024-03-02T10:08:54;11.60;60.20
20866;DHT22;10593;48.398;10.698;2024-03-02T10:11:34;11.60;60.10
20866;DHT22;10593;48.398;10.698;2024-03-02T10:14:09;11.70;60.40
20866;DHT22;10593;48.398;10.698;2024-03-02T10:16:40;11.70;60.90
20866;DHT22;10593;48.398;10.698;2024-03-02T10:19:22;11.70;60.90
20866;DHT22;10593;48.398;10.698;2024-03-02T10:21:52;11.70;61.00
20866;DHT22;10593;48.398;10.698;2024-03-02T10:24:21;11.80;60.30
20866;DHT22;10593;48.398;10.698;2024-03-02T10:26:48;11.80;60.30
20866;DHT22;10593;48.398;10.698;2024-03-02T10:29:14;11.80;60.30
20866;DHT22;10593;48.398;10.698;2024-03-02T10:31:44;11.80;60.50
20866;DHT22;10593;48.398;10.698;2024-03-02T10:34:14;11.90;60.30
20866;DHT22;10593;48.398;10.698;2024-03-02T10:36:42;11.90;60.30
20866;DHT22;10593;48.398;10.698;2024-03-02T10:39:10;12.00;60.40
20866;DHT22;10593;48.398;10.698;2024-03-02T10:41:38;12.00;60.20
20866;DHT22;10593;48.398;10.698;2024-03-02T10:44:05;12.00;60.00
20866;DHT22;10593;48.398;10.698;2024-03-02T10:46:33;12.00;60.00
20866;DHT22;10593;48.398;10.698;2024-03-02T10:49:01;12.10;60.00
20866;DHT22;10593;48.398;10.698;2024-03-02T10:51:30;12.10;59.60
20866;DHT22;10593;48.398;10.698;2024-03-02T10:53:58;12.10;59.60
20866;DHT22;10593;48.398;10.698;2024-03-02T10:56:44;12.20;59.60
20866;DHT22;10593;48.398;10.698;2024-03-02T10:59:33;12.20;59.60
20866;DHT22;10593;48.398;10.698;2024-03-02T11:02:01;12.20;59.20
20866;DHT22;10593;48.398;10.698;2024-03-02T11:04:29;12.30;59.10
20866;DHT22;10593;48.398;10.698;2024-03-02T11:07:07;12.40;58.90
20866;DHT22;10593;48.398;10.698;2024-03-02T11:09:37;12.40;59.00
20866;DHT22;10593;48.398;10.698;2024-03-02T11:12:31;12.40;58.90
20866;DHT22;10593;48.398;10.698;2024-03-02T11:15:00;12.40;58.50
20866;DHT22;10593;48.398;10.698;2024-03-02T11:17:29;12.50;58.30
20866;DHT22;10593;48.398;10.698;2024-03-02T11:19:55;12.50;57.80
20866;DHT22;10593;48.398;10.698;2024-03-02T11:22:22;12.60;58.00
20866;DHT22;10593;48.398;10.698;2024-03-02T11:24:49;12.60;57.60
20866;DHT22;10593;48.398;10.698;2024-03-02T11:33:03;12.70;56.80
20866;DHT22;10593;48.398;10.698;2024-03-02T11:35:36;12.80;56.90
20866;DHT22;10593;48.398;10.698;2024-03-02T11:38:03;12.80;56.20
20866;DHT22;10593;48.398;10.698;2024-03-02T11:40:30;12.80;55.90
20866;DHT22;10593;48.398;10.698;2024-03-02T11:43:02;12.90;56.00
20866;DHT22;10593;48.398;10.698;2024-03-02T11:45:30;12.90;56.20
20866;DHT22;10593;48.398;10.698;2024-03-02T11:48:00;12.90;56.30
20866;DHT22;10593;48.398;10.698;2024-03-02T11:50:47;13.00;55.80
20866;DHT22;10593;48.398;10.698;2024-03-02T11:53:15;13.00;55.50
20866;DHT22;10593;48.398;10.698;2024-03-02T11:55:42;13.10;55.80
20866;DHT22;10593;48.398;10.698;2024-03-02T11:58:14;13.00;56.10
20866;DHT22;10593;48.398;10.698;2024-03-02T12:00:46;13.10;56.20
20866;DHT22;10593;48.398;10.698;2024-03-02T12:03:15;13.10;57.00
20866;DHT22;10593;48.398;10.698;2024-03-02T12:05:41;13.10;56.70
20866;DHT22;10593;48.398;10.698;2024-03-02T12:08:08;13.10;56.90
20866;DHT22;10593;48.398;10.698;2024-03-02T12:10:35;13.10;57.10
20866;DHT22;10593;48.398;10.698;2024-03-02T12:13:05;13.20;57.20
20866;DHT22;10593;48.398;10.698;2024-03-02T12:15:34;13.20;57.30
20866;DHT22;10593;48.398;10.698;2024-03-02T12:18:04;13.20;56.60
20866;DHT22;10593;48.398;10.698;2024-03-02T12:20:32;13.20;56.20
20866;DHT22;10593;48.398;10.698;2024-03-02T12:23:01;13.30;56.80
20866;DHT22;10593;48.398;10.698;2024-03-02T12:25:28;13.30;57.30
20866;DHT22;10593;48.398;10.698;2024-03-02T12:27:56;13.30;57.30
20866;DHT22;10593;48.398;10.698;2024-03-02T12:30:23;13.30;57.30
20866;DHT22;10593;48.398;10.698;2024-03-02T12:32:50;13.30;57.30
20866;DHT22;10593;48.398;10.698;2024-03-02T12:35:15;13.40;57.30
20866;DHT22;10593;48.398;10.698;2024-03-02T12:37:47;13.40;57.40
20866;DHT22;10593;48.398;10.698;2024-03-02T12:40:15;13.40;57.20
20866;DHT22;10593;48.398;10.698;2024-03-02T12:42:44;13.40;57.40
20866;DHT22;10593;48.398;10.698;2024-03-02T12:45:11;13.50;58.00
20866;DHT22;10593;48.398;10.698;2024-03-02T12:47:38;13.50;57.50
20866;DHT22;10593;48.398;10.698;2024-03-02T12:50:06;13.50;57.10
20866;DHT22;10593;48.398;10.698;2024-03-02T12:52:33;13.50;56.80
20866;DHT22;10593;48.398;10.698;2024-03-02T12:55:04;13.50;56.40
20866;DHT22;10593;48.398;10.698;2024-03-02T12:57:34;13.60;55.90
20866;DHT22;10593;48.398;10.698;2024-03-02T13:00:00;13.50;55.90
20866;DHT22;10593;48.398;10.698;2024-03-02T13:02:34;13.50;56.10
20866;DHT22;10593;48.398;10.698;2024-03-02T13:05:01;13.50;56.70
20866;DHT22;10593;48.398;10.698;2024-03-02T13:07:28;13.60;55.80
20866;DHT22;10593;48.398;10.698;2024-03-02T13:09:55;13.50;55.30
20866;DHT22;10593;48.398;10.698;2024-03-02T13:12:23;13.60;55.60
20866;DHT22;10593;48.398;10.698;2024-03-02T13:14:51;13.60;55.90
20866;DHT22;10593;48.398;10.698;2024-03-02T13:17:20;13.60;56.00
20866;DHT22;10593;48.398;10.698;2024-03-02T13:19:59;13.60;56.00
20866;DHT22;10593;48.398;10.698;2024-03-02T13:22:26;13.60;56.00
20866;DHT22;10593;48.398;10.698;2024-03-02T13:24:53;13.60;56.10
20866;DHT22;10593;48.398;10.698;2024-03-02T13:27:20;13.70;56.20
20866;DHT22;10593;48.398;10.698;2024-03-02T13:29:49;13.60;56.10
20866;DHT22;10593;48.398;10.698;2024-03-02T13:32:15;13.70;56.50
20866;DHT22;10593;48.398;10.698;2024-03-02T13:34:41;13.80;56.50
20866;DHT22;10593;48.398;10.698;2024-03-02T13:37:08;13.80;56.40
20866;DHT22;10593;48.398;10.698;2024-03-02T13:39:34;13.80;56.10
20866;DHT22;10593;48.398;10.698;2024-03-02T13:42:12;13.80;56.00
20866;DHT22;10593;48.398;10.698;2024-03-02T13:44:40;13.80;56.10
20866;DHT22;10593;48.398;10.698;2024-03-02T13:47:06;13.80;56.00
20866;DHT22;10593;48.398;10.698;2024-03-02T13:49:32;13.90;56.20
20866;DHT22;10593;48.398;10.698;2024-03-02T13:52:05;13.90;55.90
20866;DHT22;10593;48.398;10.698;2024-03-02T13:54:43;13.90;55.70
20866;DHT22;10593;48.398;10.698;2024-03-02T13:57:10;13.90;55.60
20866;DHT22;10593;48.398;10.698;2024-03-02T13:59:37;13.90;55.60
20866;DHT22;10593;48.398;10.698;2024-03-02T14:02:05;14.00;55.70
20866;DHT22;10593;48.398;10.698;2024-03-02T14:04:32;14.00;55.40
20866;DHT22;10593;48.398;10.698;2024-03-02T14:06:59;14.00;55.40
20866;DHT22;10593;48.398;10.698;2024-03-02T14:09:24;14.00;55.30
20866;DHT22;10593;48.398;10.698;2024-03-02T14:11:51;14.00;55.40
20866;DHT22;10593;48.398;10.698;2024-03-02T14:14:17;14.10;55.70
20866;DHT22;10593;48.398;10.698;2024-03-02T14:16:43;14.00;55.70
20866;DHT22;10593;48.398;10.698;2024-03-02T14:19:10;14.00;55.50
20866;DHT22;10593;48.398;10.698;2024-03-02T14:21:37;14.10;55.40
20866;DHT22;10593;48.398;10.698;2024-03-02T14:24:04;14.10;55.40
20866;DHT22;10593;48.398;10.698;2024-03-02T14:26:30;14.10;55.30
20866;DHT22;10593;48.398;10.698;2024-03-02T14:28:55;14.10;55.50
20866;DHT22;10593;48.398;10.698;2024-03-02T14:31:21;14.10;55.40
20866;DHT22;10593;48.398;10.698;2024-03-02T14:33:47;14.20;55.40
20866;DHT22;10593;48.398;10.698;2024-03-02T14:36:13;14.20;55.20
20866;DHT22;10593;48.398;10.698;2024-03-02T14:38:39;14.20;55.20
20866;DHT22;10593;48.398;10.698;2024-03-02T14:41:05;14.20;55.30
20866;DHT22;10593;48.398;10.698;2024-03-02T14:43:30;14.20;55.30
20866;DHT22;10593;48.398;10.698;2024-03-02T14:45:56;14.20;55.20
20866;DHT22;10593;48.398;10.698;2024-03-02T14:48:24;14.20;55.10
20866;DHT22;10593;48.398;10.698;2024-03-02T14:50:50;14.20;55.10
20866;DHT22;10593;48.398;10.698;2024-03-02T14:53:16;14.20;54.90
20866;DHT22;10593;48.398;10.698;2024-03-02T14:55:42;14.20;54.80
20866;DHT22;10593;48.398;10.698;2024-03-02T14:58:07;14.20;54.80
20866;DHT22;10593;48.398;10.698;2024-03-02T15:00:33;14.10;54.70
20866;DHT22;10593;48.398;10.698;2024-03-02T15:02:59;14.20;54.80
20866;DHT22;10593;48.398;10.698;2024-03-02T15:05:25;14.20;54.70
20866;DHT22;10593;48.398;10.698;2024-03-02T15:07:52;14.20;54.60
20866;DHT22;10593;48.398;10.698;2024-03-02T15:10:17;14.20;54.70
20866;DHT22;10593;48.398;10.698;2024-03-02T15:12:43;14.20;54.60
20866;DHT22;10593;48.398;10.698;2024-03-02T15:15:09;14.10;54.40
20866;DHT22;10593;48.398;10.698;2024-03-02T15:17:37;14.10;54.30
20866;DHT22;10593;48.398;10.698;2024-03-02T15:20:03;14.20;54.40
20866;DHT22;10593;48.398;10.698;2024-03-02T15:22:32;14.20;54.40
20866;DHT22;10593;48.398;10.698;2024-03-02T15:24:58;14.20;54.40
20866;DHT22;10593;48.398;10.698;2024-03-02T15:27:24;14.20;54.50
20866;DHT22;10593;48.398;10.698;2024-03-02T15:29:50;14.20;54.50